Time;durP1;ratioP1;P1;durP2;ratioP2;P2;SDS_P1;SDS_P2;PMS_P1;PMS_P2;Temp;Humidity;BMP_temperature;BMP_pressure;BME280_temperature;BME280_humidity;BME280_pressure;Samples;Min_cycle;Max_cycle;Signal;HPM_P1;HPM_P2
2022/03/05 04:42:05;;;;;;;14.47;12.63;;;;;;;6.64;53.35;101672.95;1768206;80;21071;-76
2022/03/05 04:44:32;;;;;;;17.48;13.78;;;;;;;6.61;53.31;101678.98;1762110;80;20995;-76
2022/03/05 04:46:59;;;;;;;15.83;13.43;;;;;;;6.61;53.40;101678.11;1768410;79;21042;-75
2022/03/05 04:49:27;;;;;;;16.50;12.93;;;;;;;6.65;53.49;101677.28;1706543;83;21055;-76
2022/03/05 04:51:54;;;;;;;15.40;13.18;;;;;;;6.70;53.44;101682.09;1717602;82;21011;-76
2022/03/05 04:54:21;;;;;;;16.42;13.30;;;;;;;6.74;53.32;101678.22;1721809;82;21101;-76
2022/03/05 04:56:48;;;;;;;16.67;13.10;;;;;;;6.79;53.18;101681.72;1736826;80;20999;-77
2022/03/05 04:59:15;;;;;;;15.65;13.32;;;;;;;6.86;53.14;101686.53;1719852;82;21511;-77
2022/03/05 05:01:42;;;;;;;16.65;13.60;;;;;;;6.91;53.02;101686.12;1725804;82;21027;-77
2022/03/05 05:04:09;;;;;;;14.80;12.73;;;;;;;6.96;52.94;101688.33;1723148;82;21034;-76
2022/03/05 05:06:36;;;;;;;17.23;14.05;;;;;;;6.99;52.74;101686.63;1721115;82;21007;-76
2022/03/05 05:09:03;;;;;;;16.07;14.03;;;;;;;7.02;52.62;101689.25;1709766;82;21030;-76
2022/03/05 05:11:30;;;;;;;16.30;14.15;;;;;;;7.08;52.55;101693.59;1706216;82;21007;-76
2022/03/05 05:13:57;;;;;;;16.60;13.90;;;;;;;7.12;52.50;101688.88;1728613;82;21045;-76
2022/03/05 05:16:24;;;;;;;14.85;12.58;;;;;;;7.16;52.43;101685.45;1712526;82;21018;-76
2022/03/05 05:21:40;;;;;;;16.45;13.43;;;;;;;7.24;52.24;101687.24;1708295;82;21014;-76
2022/03/05 05:24:07;;;;;;;16.67;13.55;;;;;;;7.29;52.23;101702.81;1712747;82;21065;-76
2022/03/05 05:26:35;;;;;;;14.25;12.75;;;;;;;7.32;52.21;101706.27;1710451;82;21046;-76
2022/03/05 05:29:02;;;;;;;18.25;14.07;;;;;;;7.35;52.12;101708.02;1711988;82;21075;-76
2022/03/05 05:31:29;;;;;;;15.32;12.70;;;;;;;7.38;51.89;101705.44;1708225;81;21097;-76
2022/03/05 05:33:56;;;;;;;17.25;14.03;;;;;;;7.38;51.77;101706.73;1710916;82;21015;-77
2022/03/05 05:36:23;;;;;;;18.00;15.13;;;;;;;7.41;51.81;101711.95;1722090;82;21074;-76
2022/03/05 05:38:50;;;;;;;14.95;13.38;;;;;;;7.42;51.70;101716.25;1716580;82;21023;-76
2022/03/05 05:41:18;;;;;;;15.98;12.68;;;;;;;7.41;51.60;101721.01;1715898;82;21053;-76
2022/03/05 05:43:45;;;;;;;15.85;13.70;;;;;;;7.40;51.50;101720.55;1709215;82;21003;-77
2022/03/05 05:46:13;;;;;;;17.45;13.55;;;;;;;7.39;51.65;101726.61;1743329;81;21066;-76
2022/03/05 05:48:40;;;;;;;14.23;12.73;;;;;;;7.39;51.74;101733.08;1786635;79;21026;-76
2022/03/05 05:51:07;;;;;;;15.63;13.25;;;;;;;7.39;51.55;101734.38;1788496;79;21014;-76
2022/03/05 05:53:35;;;;;;;17.77;14.03;;;;;;;7.37;51.55;101737.38;1788341;79;21046;-75
2022/03/05 05:56:03;;;;;;;18.85;14.28;;;;;;;7.37;51.68;101738.25;1774136;79;21505;-76
2022/03/05 05:58:30;;;;;;;16.48;13.75;;;;;;;7.40;51.86;101737.39;1780714;79;21050;-76
2022/03/05 06:00:57;;;;;;;16.23;13.40;;;;;;;7.45;51.78;101739.59;1775653;79;20987;-76
2022/03/05 06:03:24;;;;;;;15.20;12.75;;;;;;;7.47;51.52;101735.29;1779045;78;21009;-76
2022/03/05 06:05:51;;;;;;;14.50;12.47;;;;;;;7.48;51.43;101739.59;1774289;79;21074;-76
2022/03/05 06:08:19;;;;;;;13.72;11.55;;;;;;;7.48;51.26;101746.52;1765178;79;21495;-75
2022/03/05 06:10:47;;;;;;;20.12;13.78;;;;;;;7.45;51.23;101747.78;1752326;81;21088;-76
2022/03/05 06:13:15;;;;;;;15.00;12.95;;;;;;;7.43;51.39;101746.48;1775813;80;21532;-76
2022/03/05 06:15:44;;;;;;;13.32;12.03;;;;;;;7.44;50.80;101750.79;1789329;79;21019;-75
2022/03/05 06:18:12;;;;;;;14.75;12.03;;;;;;;7.37;50.49;101756.80;1777647;79;21061;-75
2022/03/05 06:20:40;;;;;;;13.65;11.63;;;;;;;7.27;50.30;101756.30;1776591;79;21017;-74
2022/03/05 06:23:07;;;;;;;13.65;12.05;;;;;;;7.21;50.31;101753.21;1776415;79;20983;-75
2022/03/05 06:25:34;;;;;;;12.88;11.20;;;;;;;7.20;50.54;101749.33;1783567;79;21033;-75
2022/03/05 06:28:01;;;;;;;14.33;12.80;;;;;;;7.27;50.56;101756.30;1727277;82;21030;-76
2022/03/05 06:30:29;;;;;;;13.80;12.33;;;;;;;7.36;50.57;101750.75;1750713;81;21959;-75
2022/03/05 06:32:56;;;;;;;13.72;11.97;;;;;;;7.48;50.23;101757.72;1745865;81;21552;-76
2022/03/05 06:35:23;;;;;;;15.85;12.40;;;;;;;7.59;50.11;101757.38;1709783;82;21019;-77
2022/03/05 06:37:51;;;;;;;15.65;13.20;;;;;;;7.68;49.51;101754.85;1713327;82;21082;-77
2022/03/05 06:40:18;;;;;;;13.83;11.60;;;;;;;7.76;49.25;101762.66;1731847;81;21530;-77
2022/03/05 06:42:45;;;;;;;15.85;12.47;;;;;;;7.79;48.96;101756.21;1723587;82;21050;-76
2022/03/05 06:45:12;;;;;;;13.45;11.70;;;;;;;7.83;49.17;101761.39;1728892;81;21047;-76
2022/03/05 06:47:40;;;;;;;14.85;12.28;;;;;;;7.90;48.96;101757.98;1704889;82;21015;-76
2022/03/05 06:50:09;;;;;;;15.40;12.68;;;;;;;7.94;48.83;101760.16;1722655;82;21475;-76
2022/03/05 06:52:36;;;;;;;15.38;12.85;;;;;;;7.95;48.98;101757.59;1709452;82;21011;-77
2022/03/05 06:55:04;;;;;;;15.68;13.25;;;;;;;7.93;49.15;101764.92;1708682;82;21003;-76
2022/03/05 06:57:31;;;;;;;13.78;12.37;;;;;;;7.92;49.44;101767.93;1785438;79;21052;-76
2022/03/05 06:59:58;;;;;;;13.40;11.85;;;;;;;7.96;49.06;101765.79;1786512;79;20998;-77
2022/03/05 07:02:25;;;;;;;13.55;12.15;;;;;;;7.91;48.69;101767.48;1789885;79;21518;-76
2022/03/05 07:04:52;;;;;;;12.98;11.45;;;;;;;7.81;48.99;101769.59;1785736;79;21081;-76
2022/03/05 07:07:19;;;;;;;14.03;11.75;;;;;;;7.81;49.31;101772.63;1775692;79;21517;-76
2022/03/05 07:09:48;;;;;;;13.78;11.88;;;;;;;7.82;49.49;101772.63;1764314;79;21052;-76
2022/03/05 07:12:15;;;;;;;14.38;11.93;;;;;;;7.83;49.07;101770.47;1766228;79;21002;-76
2022/03/05 07:14:48;;;;;;;14.70;11.63;;;;;;;7.75;48.89;101780.38;1792271;79;21620;-76
2022/03/05 07:17:13;;;;;;;18.17;13.13;;;;;;;7.69;49.10;101775.13;1785108;79;21569;-76
2022/03/05 07:19:40;;;;;;;17.02;13.38;;;;;;;7.61;49.16;101775.51;1785935;79;21026;-76
2022/03/05 07:22:07;;;;;;;14.98;13.15;;;;;;;7.51;49.36;101782.36;1732967;82;21015;-76
2022/03/05 07:24:34;;;;;;;16.17;12.85;;;;;;;7.45;49.66;101784.03;1720163;82;21005;-76
2022/03/05 07:27:01;;;;;;;14.40;11.65;;;;;;;7.44;49.52;101788.34;1718979;82;21003;-76
2022/03/05 07:29:28;;;;;;;14.33;12.00;;;;;;;7.44;49.35;101796.11;1724994;82;21649;-76
2022/03/05 07:31:55;;;;;;;15.25;11.97;;;;;;;7.39;49.33;101792.63;1789553;79;20990;-77
2022/03/05 07:34:22;;;;;;;15.18;11.95;;;;;;;7.36;49.37;101795.18;1781983;79;21467;-76
2022/03/05 07:36:49;;;;;;;14.98;12.70;;;;;;;7.34;49.59;101794.30;1782401;79;20963;-77
2022/03/05 07:39:16;;;;;;;17.65;12.50;;;;;;;7.30;49.65;101801.19;1769652;80;21567;-77
2022/03/05 07:41:43;;;;;;;16.23;12.85;;;;;;;7.30;49.99;101796.02;1770977;79;21291;-76
2022/03/05 07:44:10;;;;;;;13.62;11.80;;;;;;;7.32;50.17;101802.06;1772067;80;20997;-77
2022/03/05 07:46:37;;;;;;;16.42;13.35;;;;;;;7.35;50.23;101798.64;1781160;80;21031;-77
2022/03/05 07:49:05;;;;;;;15.53;11.80;;;;;;;7.37;50.21;101802.11;1774673;80;21039;-76
2022/03/05 07:51:33;;;;;;;15.43;13.25;;;;;;;7.42;49.90;101802.99;1765740;79;21022;-76
2022/03/05 07:54:00;;;;;;;16.70;13.00;;;;;;;7.39;49.84;101805.58;1696464;82;21026;-75
2022/03/05 07:56:27;;;;;;;15.53;12.30;;;;;;;7.36;49.85;101800.36;1705183;83;21503;-75
2022/03/05 07:58:54;;;;;;;14.43;12.60;;;;;;;7.30;49.88;101799.02;1716832;82;21015;-76
2022/03/05 08:01:21;;;;;;;18.67;13.98;;;;;;;7.25;49.89;101802.02;1729231;81;20996;-76
2022/03/05 08:03:48;;;;;;;15.58;12.85;;;;;;;7.22;50.19;101807.15;1746066;81;21027;-76
2022/03/05 08:06:15;;;;;;;15.28;12.47;;;;;;;7.22;50.24;101804.56;1740350;81;21034;-75
2022/03/05 08:08:43;;;;;;;15.93;12.85;;;;;;;7.22;50.36;101800.27;1771276;79;21065;-76
2022/03/05 08:11:11;;;;;;;16.60;12.93;;;;;;;7.19;50.40;101802.81;1789268;78;21152;-75
2022/03/05 08:13:40;;;;;;;14.87;12.93;;;;;;;7.15;50.50;101801.50;1772539;79;21068;-76
2022/03/05 08:16:08;;;;;;;13.98;12.10;;;;;;;7.14;50.72;101798.45;1762731;80;21509;-75
2022/03/05 08:18:36;;;;;;;17.07;13.38;;;;;;;7.12;50.62;101807.93;1778868;79;21041;-75
2022/03/05 08:21:04;;;;;;;14.30;12.25;;;;;;;7.11;50.78;101807.50;1783725;79;21095;-75
2022/03/05 08:23:31;;;;;;;15.00;12.55;;;;;;;7.11;50.48;101801.03;1726811;82;21513;-75
2022/03/05 08:25:58;;;;;;;15.28;13.28;;;;;;;7.07;50.55;101807.00;1722477;82;21086;-75
2022/03/05 08:28:25;;;;;;;17.67;13.03;;;;;;;7.01;50.72;101806.95;1691703;83;21462;-76
2022/03/05 08:30:52;;;;;;;15.75;12.58;;;;;;;7.00;50.69;101807.82;1714727;82;21030;-77
2022/03/05 08:33:21;;;;;;;14.35;12.35;;;;;;;6.97;50.93;101810.36;1708564;82;21051;-76
2022/03/05 08:35:49;;;;;;;14.75;12.65;;;;;;;6.96;51.00;101814.70;1712183;82;21047;-76
2022/03/05 08:38:16;;;;;;;16.93;13.60;;;;;;;6.97;51.16;101820.71;1727013;82;21023;-76
2022/03/05 08:40:43;;;;;;;16.15;13.43;;;;;;;7.00;51.26;101823.34;1714872;82;21518;-76
2022/03/05 08:43:10;;;;;;;18.02;12.47;;;;;;;7.05;51.30;101820.36;1762428;79;21046;-79
2022/03/05 08:45:37;;;;;;;18.20;13.38;;;;;;;7.08;51.21;101826.87;1781653;79;21112;-76
2022/03/05 08:48:05;;;;;;;14.80;12.58;;;;;;;7.12;51.12;101829.93;1776581;79;21132;-76
2022/03/05 08:50:35;;;;;;;17.75;12.93;;;;;;;7.12;50.90;101826.05;1774890;79;21053;-75
2022/03/05 08:53:02;;;;;;;15.40;12.65;;;;;;;7.12;50.88;101832.52;1729326;81;21506;-75
2022/03/05 08:55:30;;;;;;;15.63;13.00;;;;;;;7.08;50.88;101840.69;1720658;82;21030;-75
2022/03/05 08:57:57;;;;;;;17.05;14.00;;;;;;;7.04;51.10;101840.64;1704651;82;21026;-77
2022/03/05 09:00:24;;;;;;;15.23;13.32;;;;;;;7.02;50.83;101843.22;1705465;82;21043;-76
2022/03/05 09:02:51;;;;;;;16.50;12.63;;;;;;;6.98;51.05;101847.05;1720806;82;21059;-75
2022/03/05 09:05:18;;;;;;;15.00;12.75;;;;;;;6.99;51.18;101844.88;1718022;82;21546;-75
2022/03/05 09:07:45;;;;;;;15.28;13.10;;;;;;;7.02;51.09;101842.34;1711629;82;21070;-75
2022/03/05 09:10:12;;;;;;;18.32;13.58;;;;;;;7.03;51.16;101849.23;1716858;82;21108;-76
2022/03/05 09:12:42;;;;;;;16.00;13.05;;;;;;;7.06;50.88;101847.98;1726632;82;21058;-76
2022/03/05 09:15:10;;;;;;;15.45;12.43;;;;;;;7.03;51.14;101848.81;1719298;82;21024;-76
2022/03/05 09:17:38;;;;;;;14.13;12.70;;;;;;;7.07;51.21;101847.12;1705064;83;21063;-75
2022/03/05 09:20:08;;;;;;;14.80;12.65;;;;;;;7.11;51.24;101848.46;1779267;78;21025;-75
2022/03/05 09:22:36;;;;;;;14.65;13.00;;;;;;;7.14;51.31;101850.22;1794466;79;21042;-75
2022/03/05 09:25:04;;;;;;;14.90;12.95;;;;;;;7.18;51.12;101854.58;1787183;79;21538;-76
2022/03/05 09:27:33;;;;;;;18.45;12.58;;;;;;;7.22;51.12;101856.34;1780317;79;21015;-76
2022/03/05 09:30:00;;;;;;;15.13;12.45;;;;;;;7.28;50.90;101853.38;1716110;81;21018;-76
2022/03/05 09:32:27;;;;;;;16.82;12.68;;;;;;;7.32;50.47;101854.27;1710067;81;21034;-76
2022/03/05 09:34:59;;;;;;;15.35;13.50;;;;;;;7.33;50.23;101853.01;1799310;79;21026;-76
2022/03/05 09:37:23;;;;;;;15.60;13.30;;;;;;;7.34;50.10;101849.97;1762526;80;21002;-76
2022/03/05 09:39:51;;;;;;;17.55;12.35;;;;;;;7.35;50.07;101847.84;1788371;79;21034;-75
2022/03/05 09:42:18;;;;;;;17.00;13.15;;;;;;;7.38;50.15;101850.44;1779861;79;21089;-76
2022/03/05 09:44:45;;;;;;;15.80;12.40;;;;;;;7.39;50.17;101854.77;1779246;79;20971;-75
2022/03/05 09:47:12;;;;;;;14.65;12.18;;;;;;;7.38;50.23;101859.50;1772971;79;21619;-76
2022/03/05 09:49:41;;;;;;;13.95;12.25;;;;;;;7.36;50.37;101858.20;1760108;79;21037;-76
2022/03/05 09:52:08;;;;;;;17.05;13.68;;;;;;;7.37;50.25;101859.95;1765951;79;21054;-76
2022/03/05 09:54:35;;;;;;;16.90;12.82;;;;;;;7.36;50.14;101858.62;1713319;82;21039;-76
2022/03/05 09:57:12;;;;;;;15.88;12.65;;;;;;;7.35;50.39;101856.90;1700777;81;21049;-75
2022/03/05 09:59:39;;;;;;;14.20;11.68;;;;;;;7.35;50.28;101855.61;1738556;81;21077;-76
2022/03/05 10:02:07;;;;;;;15.15;11.97;;;;;;;7.33;50.43;101856.02;1717966;82;21314;-76
2022/03/05 10:04:34;;;;;;;14.90;12.40;;;;;;;7.34;50.69;101859.91;1728596;82;21069;-75
2022/03/05 10:07:15;;;;;;;13.98;12.35;;;;;;;7.38;50.75;101863.38;1732090;81;21535;-77
2022/03/05 10:09:47;;;;;;;15.48;11.73;;;;;;;7.41;50.76;101860.83;1626131;87;21083;-76
2022/03/05 10:12:30;;;;;;;15.30;12.47;;;;;;;7.48;50.65;101862.60;1612435;87;21068;-76
2022/03/05 10:15:13;;;;;;;15.83;11.83;;;;;;;7.53;50.45;101859.64;1614759;87;21824;-75
2022/03/05 10:17:54;;;;;;;17.60;13.03;;;;;;;7.57;50.34;101862.69;1631776;87;21588;-75
2022/03/05 10:20:26;;;;;;;12.20;10.78;;;;;;;7.60;50.34;101860.14;1615618;87;21466;-75
2022/03/05 10:23:03;;;;;;;14.47;12.18;;;;;;;7.65;49.91;101855.84;1584927;88;21051;-75
2022/03/05 10:25:44;;;;;;;13.58;11.40;;;;;;;7.65;49.41;101858.44;1645275;86;21071;-76
2022/03/05 10:28:21;;;;;;;16.93;12.33;;;;;;;7.67;49.16;101860.61;1639564;86;21056;-76
2022/03/05 10:31:07;;;;;;;17.45;13.25;;;;;;;7.66;49.29;101858.89;1640801;86;21523;-76
2022/03/05 10:33:44;;;;;;;15.65;11.90;;;;;;;7.66;48.86;101862.78;1630548;86;21141;-76
2022/03/05 10:36:23;;;;;;;14.87;12.45;;;;;;;7.65;49.15;101855.84;1638851;87;21556;-76
2022/03/05 10:38:57;;;;;;;14.35;11.48;;;;;;;7.66;48.79;101856.72;1643518;86;21052;-76
2022/03/05 10:41:38;;;;;;;18.27;12.85;;;;;;;7.65;48.72;101861.02;1641346;85;21611;-75
2022/03/05 10:44:10;;;;;;;14.20;11.63;;;;;;;7.65;48.40;101858.44;1648719;86;21027;-76
2022/03/05 10:46:46;;;;;;;14.45;12.10;;;;;;;7.66;48.41;101855.00;1640357;86;21031;-76
2022/03/05 10:49:20;;;;;;;14.60;12.10;;;;;;;7.67;48.43;101851.54;1640496;86;21669;-77
2022/03/05 10:51:55;;;;;;;12.35;11.03;;;;;;;7.69;48.65;101849.83;1634436;86;21123;-77
2022/03/05 10:54:42;;;;;;;13.30;11.90;;;;;;;7.77;48.86;101853.79;1639672;86;21276;-76
2022/03/05 10:57:17;;;;;;;15.05;11.05;;;;;;;7.84;48.59;101857.72;1633108;86;21214;-76
2022/03/05 10:59:50;;;;;;;13.48;10.78;;;;;;;7.93;48.14;101860.36;1639699;86;21228;-77
2022/03/05 11:02:21;;;;;;;12.82;10.82;;;;;;;7.98;47.83;101859.97;1623349;86;21123;-76
2022/03/05 11:04:51;;;;;;;13.50;11.03;;;;;;;8.03;47.61;101853.11;1650173;85;21107;-76
2022/03/05 11:07:22;;;;;;;;;;;;;;;8.10;47.49;101854.86;1735219;81;21092;-76
2022/03/05 11:09:50;;;;;;;13.60;10.60;;;;;;;8.17;47.03;101852.75;1743177;81;20442;-76
2022/03/05 11:12:19;;;;;;;12.98;10.10;;;;;;;8.21;46.52;101854.50;1726210;82;21211;-75
2022/03/05 11:14:51;;;;;;;13.70;10.35;;;;;;;8.22;46.28;101855.38;1728282;81;21566;-75
2022/03/05 11:17:21;;;;;;;11.20;9.88;;;;;;;8.23;46.21;101856.67;1736856;81;21034;-76
2022/03/05 11:19:50;;;;;;;10.95;9.80;;;;;;;8.28;46.20;101855.44;1758097;79;21018;-76
2022/03/05 11:22:18;;;;;;;11.10;9.20;;;;;;;8.33;45.70;101854.13;1783202;79;20974;-76
2022/03/05 11:24:46;;;;;;;10.60;9.45;;;;;;;8.34;45.43;101854.59;1776638;79;21010;-76
2022/03/05 11:27:15;;;;;;;14.20;9.13;;;;;;;8.34;44.90;101854.16;1790150;79;21058;-76
2022/03/05 11:30:00;;;;;;;10.53;8.60;;;;;;;8.31;44.70;101849.38;1783493;78;21050;-76
2022/03/05 11:32:30;;;;;;;10.45;8.90;;;;;;;8.32;44.83;101852.42;1781922;79;20968;-75
2022/03/05 11:34:59;;;;;;;10.48;8.70;;;;;;;8.33;44.85;101850.24;1787019;78;21476;-75
2022/03/05 11:37:36;;;;;;;10.90;9.30;;;;;;;8.34;44.69;101852.00;1790118;79;21015;-76
2022/03/05 11:40:07;;;;;;;10.10;9.05;;;;;;;8.33;44.47;101851.54;1756606;79;21065;-76
2022/03/05 11:42:38;;;;;;;13.05;9.20;;;;;;;8.27;44.10;101852.81;1771766;79;21526;-75
2022/03/05 11:45:32;;;;;;;14.58;10.05;;;;;;;8.21;44.64;101851.91;1781866;79;20975;-76
2022/03/05 11:48:25;;;;;;;10.95;9.60;;;;;;;8.18;45.21;101853.17;1730306;82;21612;-76
2022/03/05 11:51:00;;;;;;;12.40;10.15;;;;;;;8.18;45.51;101857.05;1743946;81;21128;-76
2022/03/05 11:53:29;;;;;;;13.10;9.95;;;;;;;8.19;45.60;101853.63;1741950;81;21065;-75
2022/03/05 11:55:58;;;;;;;11.78;8.55;;;;;;;8.21;45.51;101851.03;1709778;83;21030;-76
2022/03/05 11:58:29;;;;;;;9.88;8.68;;;;;;;8.22;44.99;101860.11;1705079;83;21494;-75
2022/03/05 12:00:57;;;;;;;12.82;9.15;;;;;;;8.26;44.87;101864.06;1705617;83;21050;-76
2022/03/05 12:03:42;;;;;;;17.35;8.88;;;;;;;8.27;44.98;101856.28;1682067;84;21094;-75
2022/03/05 12:06:11;;;;;;;10.78;9.15;;;;;;;8.27;44.64;101856.28;1748171;81;21061;-75
2022/03/05 12:08:42;;;;;;;9.98;8.98;;;;;;;8.22;44.67;101858.80;1743393;81;21138;-76
2022/03/05 12:11:20;;;;;;;12.78;8.73;;;;;;;8.21;44.86;101863.99;1734829;81;21037;-75
2022/03/05 12:13:55;;;;;;;10.85;8.83;;;;;;;8.21;44.88;101863.57;1738306;82;21544;-75
2022/03/05 12:16:27;;;;;;;11.10;8.20;;;;;;;8.21;45.02;101867.46;1744722;81;21609;-75
2022/03/05 12:18:59;;;;;;;9.53;8.13;;;;;;;8.21;44.82;101863.99;1713203;83;21061;-75
2022/03/05 12:21:32;;;;;;;10.40;7.80;;;;;;;8.19;44.56;101867.87;1704619;83;21049;-75
2022/03/05 12:24:08;;;;;;;9.08;7.70;;;;;;;8.18;44.45;101868.72;1720901;80;20984;-74
2022/03/05 12:26:44;;;;;;;8.63;7.65;;;;;;;8.17;44.57;101874.78;1777655;80;21010;-76
2022/03/05 12:29:11;;;;;;;10.48;8.35;;;;;;;8.15;43.56;101873.91;1766797;80;21055;-76
2022/03/05 12:31:40;;;;;;;8.40;7.40;;;;;;;8.13;43.76;101871.73;1767649;80;20999;-75
2022/03/05 12:34:07;;;;;;;8.68;6.92;;;;;;;8.15;43.76;101866.55;1764377;80;21806;-74
2022/03/05 12:36:42;;;;;;;13.18;6.78;;;;;;;8.19;43.42;101875.66;1771602;80;21073;-76
2022/03/05 12:39:10;;;;;;;8.75;6.60;;;;;;;8.22;43.38;101874.36;1765639;80;21028;-77
2022/03/05 12:41:40;;;;;;;8.08;6.85;;;;;;;8.29;43.36;101877.02;1729736;80;21022;-75
2022/03/05 12:44:07;;;;;;;12.05;8.70;;;;;;;8.29;42.16;101876.60;1772212;81;21007;-76
2022/03/05 12:46:34;;;;;;;9.85;7.05;;;;;;;8.25;41.88;101872.26;1744953;80;21073;-77
2022/03/05 12:49:05;;;;;;;7.92;6.20;;;;;;;8.21;42.37;101875.23;1764481;80;21046;-75
2022/03/05 12:51:32;;;;;;;9.50;5.90;;;;;;;8.21;41.78;101870.05;1735549;82;21050;-75
2022/03/05 12:54:03;;;;;;;11.15;7.70;;;;;;;8.21;41.20;101866.59;1733154;81;21166;-76
2022/03/05 12:56:30;;;;;;;7.75;6.08;;;;;;;8.19;41.64;101875.66;1690324;84;21018;-75
2022/03/05 12:58:58;;;;;;;12.35;5.62;;;;;;;8.15;41.67;101872.61;1688351;84;21134;-75
2022/03/05 13:03:55;;;;;;;7.30;5.47;;;;;;;8.08;41.51;101873.84;1620311;87;21142;-75
2022/03/05 13:06:22;;;;;;;6.87;5.62;;;;;;;8.08;41.81;101873.42;1612930;87;21076;-75
2022/03/05 13:08:49;;;;;;;7.75;5.83;;;;;;;8.12;41.72;101879.06;1619566;87;21566;-76
2022/03/05 13:11:18;;;;;;;7.72;4.85;;;;;;;8.17;41.43;101878.67;1616158;87;21105;-75
2022/03/05 13:13:55;;;;;;;6.28;5.40;;;;;;;8.22;40.86;101884.73;1612765;87;21129;-76
2022/03/05 13:16:36;;;;;;;6.35;4.75;;;;;;;8.23;40.44;101881.30;1579827;90;21148;-75
2022/03/05 13:19:05;;;;;;;9.00;7.22;;;;;;;8.18;40.46;101884.28;1517711;93;21168;-76
2022/03/05 13:21:40;;;;;;;7.37;6.22;;;;;;;8.13;40.51;101883.41;1499091;94;21166;-75
2022/03/05 13:24:09;;;;;;;8.03;5.28;;;;;;;8.09;40.95;101879.06;1528958;91;21125;-75
2022/03/05 13:26:38;;;;;;;5.90;4.60;;;;;;;8.10;41.09;101882.50;1552797;91;21582;-75
2022/03/05 13:29:06;;;;;;;9.93;5.60;;;;;;;8.14;40.99;101889.01;1542853;91;21190;-75
2022/03/05 13:31:32;;;;;;;7.55;4.90;;;;;;;8.21;40.94;101885.61;1544807;90;21180;-77
2022/03/05 13:33:59;;;;;;;8.35;5.45;;;;;;;8.25;40.29;101886.52;1546512;91;21080;-76
2022/03/05 13:36:31;;;;;;;5.30;4.70;;;;;;;8.28;40.35;101894.75;1521046;93;21893;-76
2022/03/05 13:39:16;;;;;;;5.62;4.30;;;;;;;8.27;40.16;101896.89;1535923;92;21154;-76
2022/03/05 13:41:46;;;;;;;5.62;4.42;;;;;;;8.24;40.30;101893.39;1548243;91;21170;-75
2022/03/05 13:44:32;;;;;;;5.50;4.22;;;;;;;8.20;40.12;101894.23;1475462;96;21206;-77
2022/03/05 13:46:59;;;;;;;6.15;4.95;;;;;;;8.15;40.38;101892.06;1445198;96;21269;-76
2022/03/05 13:49:28;;;;;;;6.12;4.28;;;;;;;8.13;40.30;101900.25;1488977;95;21125;-75
2022/03/05 13:51:58;;;;;;;6.90;4.30;;;;;;;8.10;40.30;101892.44;1485985;95;21740;-76
2022/03/05 13:54:38;;;;;;;6.10;4.67;;;;;;;8.07;40.68;101898.92;1411155;100;21142;-76
2022/03/05 13:57:07;;;;;;;6.42;4.80;;;;;;;8.08;40.52;101896.75;1412527;101;21221;-76
2022/03/05 13:59:44;;;;;;;8.08;4.33;;;;;;;8.09;40.46;101893.31;1431071;97;21168;-75
2022/03/05 14:02:12;;;;;;;21.87;11.90;;;;;;;8.13;40.10;101894.20;1454181;96;21207;-75
2022/03/05 14:05:03;;;;;;;13.40;9.60;;;;;;;8.13;39.91;101896.78;1472054;96;21175;-76
2022/03/05 14:07:30;;;;;;;15.23;12.45;;;;;;;8.12;40.21;101899.80;1462149;96;21143;-76
2022/03/05 14:09:58;;;;;;;11.85;8.03;;;;;;;8.12;40.87;101900.22;1466482;95;21113;-76
2022/03/05 14:12:27;;;;;;;6.33;5.28;;;;;;;8.11;41.19;101905.86;1471195;95;21227;-76
2022/03/05 14:15:02;;;;;;;7.15;5.65;;;;;;;8.11;41.46;101905.86;1469118;95;21147;-77
2022/03/05 14:17:41;;;;;;;7.10;4.95;;;;;;;8.10;41.63;101908.00;1487723;95;21190;-76
2022/03/05 14:20:25;;;;;;;6.47;4.75;;;;;;;8.09;41.68;101910.17;1542068;91;21076;-75
2022/03/05 14:23:03;;;;;;;6.67;5.05;;;;;;;8.05;41.43;101909.70;1579017;89;21115;-76
2022/03/05 14:25:48;;;;;;;6.87;4.00;;;;;;;8.03;41.70;101914.02;1582064;90;21134;-75
2022/03/05 14:28:18;;;;;;;8.75;5.70;;;;;;;8.03;41.08;101913.14;1567317;90;21054;-76
2022/03/05 14:30:44;;;;;;;10.85;7.45;;;;;;;8.01;40.52;101915.73;1572660;90;21138;-75
2022/03/05 14:33:12;;;;;;;8.18;4.87;;;;;;;7.99;40.32;101925.22;1567802;90;21088;-76
2022/03/05 14:35:38;;;;;;;6.33;4.55;;;;;;;7.96;40.44;101914.81;1573816;90;21107;-75
2022/03/05 14:38:05;;;;;;;4.90;4.35;;;;;;;7.92;40.95;101918.24;1556223;90;21056;-76
2022/03/05 14:40:34;;;;;;;5.47;4.33;;;;;;;7.93;40.96;101925.14;1590483;86;21597;-76
2022/03/05 14:43:01;;;;;;;5.83;4.53;;;;;;;7.91;41.09;101921.67;1654167;85;21082;-76
2022/03/05 14:45:28;;;;;;;6.20;4.40;;;;;;;7.92;40.98;101923.84;1657481;85;21113;-76
2022/03/05 14:47:55;;;;;;;8.33;4.87;;;;;;;7.91;41.24;101920.38;1645167;86;21031;-75
2022/03/05 14:50:23;;;;;;;6.85;4.92;;;;;;;7.92;41.09;101923.42;1661981;83;21170;-75
2022/03/05 14:52:50;;;;;;;9.53;6.37;;;;;;;7.91;41.24;101924.27;1702580;83;21085;-76
2022/03/05 14:55:17;;;;;;;7.95;5.42;;;;;;;7.92;41.79;101935.51;1700092;83;21106;-76
2022/03/05 14:57:44;;;;;;;8.13;5.80;;;;;;;7.92;41.73;101931.20;1703122;81;21067;-75
2022/03/05 15:00:15;;;;;;;6.58;4.72;;;;;;;7.97;41.81;101929.53;1706447;83;21068;-75
2022/03/05 15:02:42;;;;;;;4.92;4.05;;;;;;;7.99;41.55;101926.52;1698679;82;21083;-75
2022/03/05 15:05:10;;;;;;;6.83;5.65;;;;;;;8.03;41.09;101929.56;1695107;82;21046;-76
2022/03/05 15:07:38;;;;;;;7.22;5.42;;;;;;;8.02;41.41;101938.19;1704211;82;21551;-76
2022/03/05 15:10:09;;;;;;;8.95;5.67;;;;;;;8.01;41.61;101931.28;1690853;84;21123;-76
2022/03/05 15:12:36;;;;;;;9.60;6.58;;;;;;;8.01;41.56;101936.47;1701692;82;21066;-77
2022/03/05 15:15:04;;;;;;;8.45;5.87;;;;;;;8.01;41.95;101937.77;1686140;82;21094;-76
2022/03/05 15:17:31;;;;;;;7.40;5.90;;;;;;;8.03;42.02;101937.34;1709616;81;21058;-76
2022/03/05 15:19:58;;;;;;;10.63;7.12;;;;;;;8.04;42.08;101944.25;1740834;80;20964;-76
2022/03/05 15:22:25;;;;;;;8.58;6.50;;;;;;;8.06;42.20;101941.23;1729060;82;21052;-76
2022/03/05 15:24:52;;;;;;;11.48;6.58;;;;;;;8.08;42.31;101936.05;1783709;79;21549;-76
2022/03/05 15:27:19;;;;;;;8.33;5.83;;;;;;;8.10;42.32;101948.59;1780660;79;21014;-75
2022/03/05 15:29:45;;;;;;;8.53;5.78;;;;;;;8.10;42.58;101948.17;1795823;79;20979;-76
2022/03/05 15:32:12;;;;;;;7.20;5.17;;;;;;;8.11;42.49;101949.93;1773018;80;21473;-76
2022/03/05 15:34:39;;;;;;;6.97;5.50;;;;;;;8.11;42.48;101953.82;1768458;80;21007;-75
2022/03/05 15:37:07;;;;;;;6.95;6.03;;;;;;;8.12;42.84;101952.95;1770318;79;21058;-77
2022/03/05 15:39:34;;;;;;;7.22;6.17;;;;;;;8.13;42.79;101962.48;1728455;82;21092;-76
2022/03/05 15:42:01;;;;;;;7.17;6.03;;;;;;;8.12;42.92;101959.42;1737217;81;21014;-76
2022/03/05 15:44:28;;;;;;;7.53;5.60;;;;;;;8.11;43.05;101966.78;1721185;82;21046;-76
2022/03/05 15:46:55;;;;;;;6.28;5.12;;;;;;;8.11;43.17;101964.19;1784300;79;20997;-76
2022/03/05 15:49:22;;;;;;;7.55;6.25;;;;;;;8.11;43.19;101964.19;1768738;79;21006;-76
2022/03/05 15:51:49;;;;;;;5.87;5.10;;;;;;;8.11;43.27;101962.89;1792169;78;21361;-76
2022/03/05 15:54:16;;;;;;;6.65;4.92;;;;;;;8.11;43.35;101968.50;1792671;78;21019;-76
2022/03/05 15:56:42;;;;;;;6.85;6.05;;;;;;;8.11;43.53;101968.08;1794567;79;21517;-76
2022/03/05 15:59:09;;;;;;;11.65;5.90;;;;;;;8.11;43.51;101969.37;1793430;79;21047;-76
2022/03/05 16:01:36;;;;;;;9.00;6.28;;;;;;;8.10;43.67;101966.33;1776640;79;21002;-76
2022/03/05 16:04:03;;;;;;;7.30;5.83;;;;;;;8.11;43.84;101971.97;1785198;79;21015;-76
2022/03/05 16:06:31;;;;;;;8.90;6.08;;;;;;;8.11;43.91;101970.67;1757595;80;21490;-76
2022/03/05 16:08:59;;;;;;;9.75;6.78;;;;;;;8.11;43.98;101971.97;1786791;79;21046;-75
2022/03/05 16:11:26;;;;;;;15.20;9.80;;;;;;;8.10;44.16;101973.22;1781491;79;21032;-76
2022/03/05 16:13:53;;;;;;;12.15;8.60;;;;;;;8.08;44.12;101977.11;1775959;79;21034;-77
2022/03/05 16:16:20;;;;;;;11.08;8.45;;;;;;;8.07;43.94;101977.98;1781688;79;20991;-76
2022/03/05 16:18:48;;;;;;;14.53;9.78;;;;;;;8.04;43.93;101979.66;1769125;80;21002;-76
2022/03/05 16:21:15;;;;;;;10.93;9.03;;;;;;;8.02;44.05;101980.95;1787029;79;21557;-76